createdAt,value
2022-10-09T00:03:13.238Z,101142.13
2022-10-09T00:08:17.257Z,101146.28
2022-10-09T00:13:20.082Z,101155.50
2022-10-09T00:18:22.889Z,101149.81
2022-10-09T00:23:27.279Z,101154.44
2022-10-09T00:28:35.304Z,101157.44
2022-10-09T00:33:40.755Z,101149.94
2022-10-09T00:38:44.867Z,101151.47
2022-10-09T00:43:49.910Z,101147.53
2022-10-09T00:48:58.046Z,101157.91
2022-10-09T00:54:03.300Z,101154.34
2022-10-09T00:59:06.526Z,101153.88
2022-10-09T01:04:09.343Z,101151.38
2022-10-09T01:09:16.242Z,101152.00
2022-10-09T01:14:23.294Z,101152.22
2022-10-09T01:19:45.971Z,101156.63
2022-10-09T01:24:54.868Z,101157.13
2022-10-09T01:30:02.876Z,101160.94
2022-10-09T01:35:06.956Z,101154.16
2022-10-09T01:40:10.553Z,101162.47
2022-10-09T01:45:14.896Z,101163.88
2022-10-09T01:50:23.679Z,101175.66
2022-10-09T01:55:37.405Z,101169.97
2022-10-09T02:00:44.572Z,101170.91
2022-10-09T02:05:48.880Z,101172.31
2022-10-09T02:10:54.554Z,101171.22
2022-10-09T02:16:02.828Z,101181.28
2022-10-09T02:21:09.974Z,101178.06
2022-10-09T02:26:13.838Z,101183.53
2022-10-09T02:31:21.360Z,101188.03
2022-10-09T02:36:24.081Z,101192.19
2022-10-09T02:41:27.611Z,101187.06
2022-10-09T02:46:31.894Z,101199.44
2022-10-09T02:51:34.681Z,101197.75
2022-10-09T02:56:39.173Z,101202.44
2022-10-09T03:01:43.386Z,101200.75
2022-10-09T03:06:46.173Z,101203.97
2022-10-09T03:11:48.850Z,101206.88
2022-10-09T03:16:52.941Z,101209.47
2022-10-09T03:21:55.664Z,101208.16
2022-10-09T03:26:58.289Z,101209.94
2022-10-09T03:32:02.421Z,101206.94
2022-10-09T03:37:05.214Z,101212.28
2022-10-09T03:42:07.889Z,101227.03
2022-10-09T03:47:11.847Z,101228.31
2022-10-09T03:52:14.483Z,101227.63
2022-10-09T03:57:17.100Z,101225.81
2022-10-09T04:02:21.105Z,101223.75
2022-10-09T04:07:23.791Z,101230.50
2022-10-09T04:12:26.424Z,101231.06
2022-10-09T04:17:30.411Z,101225.53
2022-10-09T04:22:33.108Z,101230.44
2022-10-09T04:27:35.799Z,101231.19
2022-10-09T04:32:39.733Z,101239.72
2022-10-09T04:37:42.360Z,101250.53
2022-10-09T04:42:45.070Z,101236.72
2022-10-09T04:47:49.051Z,101233.28
2022-10-09T04:52:52.230Z,101236.63
2022-10-09T04:57:55.102Z,101243.53
2022-10-09T05:02:59.073Z,101242.41
2022-10-09T05:08:01.719Z,101238.13
2022-10-09T05:13:04.622Z,101239.78
2022-10-09T05:18:08.629Z,101236.44
2022-10-09T05:23:11.338Z,101243.69
2022-10-09T05:28:14.044Z,101253.72
2022-10-09T05:33:18.501Z,101249.44
2022-10-09T05:38:21.613Z,101238.03
2022-10-09T05:43:26.649Z,101248.28
2022-10-09T05:48:30.656Z,101260.59
2022-10-09T05:53:33.421Z,101264.66
2022-10-09T05:58:36.052Z,101263.50
2022-10-09T06:03:40.208Z,101261.28
2022-10-09T06:08:42.958Z,101259.16
2022-10-09T06:13:46.210Z,101269.06
2022-10-09T06:18:50.333Z,101275.41
2022-10-09T06:23:54.277Z,101271.63
2022-10-09T06:28:57.498Z,101279.53
2022-10-09T06:34:03.198Z,101274.06
2022-10-09T06:39:07.470Z,101287.44
2022-10-09T06:44:16.313Z,101294.56
2022-10-09T06:49:20.799Z,101296.34
2022-10-09T06:54:23.637Z,101302.69
2022-10-09T06:59:26.549Z,101304.50
2022-10-09T07:04:30.919Z,101318.72
2022-10-09T07:09:33.715Z,101325.78
2022-10-09T07:14:36.326Z,101321.41
2022-10-09T07:19:40.608Z,101332.84
2022-10-09T07:24:43.274Z,101331.94
2022-10-09T07:29:46.396Z,101335.50
2022-10-09T07:34:50.441Z,101335.63
2022-10-09T07:39:53.115Z,101338.72
2022-10-09T07:44:55.719Z,101345.03
2022-10-09T07:49:59.730Z,101340.88
2022-10-09T07:55:02.666Z,101343.50
2022-10-09T08:00:06.294Z,101343.84
2022-10-09T08:05:16.594Z,101349.66
2022-10-09T08:10:19.245Z,101349.53
2022-10-09T08:15:21.866Z,101333.78
2022-10-09T08:20:25.904Z,101338.78
2022-10-09T08:25:29.106Z,101335.97
2022-10-09T08:30:32.098Z,101333.88
2022-10-09T08:35:36.085Z,101341.63
2022-10-09T08:40:44.051Z,101342.13
2022-10-09T08:45:47.735Z,101343.28
2022-10-09T08:50:53.509Z,101341.22
2022-10-09T08:55:57.551Z,101350.41
2022-10-09T09:01:02.808Z,101331.28
2022-10-09T09:06:10.371Z,101338.44
2022-10-09T09:11:22.016Z,101345.78
2022-10-09T09:16:32.037Z,101331.88
2022-10-09T09:21:41.916Z,101336.63
2022-10-09T09:26:45.051Z,101337.78
2022-10-09T09:31:49.051Z,101326.03
2022-10-09T09:36:55.845Z,101326.84
2022-10-09T09:42:01.901Z,101332.53
2022-10-09T09:47:04.617Z,101320.47
2022-10-09T09:52:09.945Z,101316.16
2022-10-09T09:57:17.037Z,101305.63
2022-10-09T10:02:25.192Z,101308.84
2022-10-09T10:07:30.740Z,101306.47
2022-10-09T10:12:33.513Z,101306.28
2022-10-09T10:17:36.729Z,101294.13
2022-10-09T10:22:40.840Z,101278.19
2022-10-09T10:27:43.903Z,101278.59
2022-10-09T10:32:52.172Z,101274.88
2022-10-09T10:38:00.129Z,101273.47
2022-10-09T10:43:21.453Z,101258.81
2022-10-09T10:48:26.823Z,101255.31
2022-10-09T10:53:41.323Z,101252.13
2022-10-09T10:58:47.984Z,101245.75
2022-10-09T11:04:05.471Z,101228.88
2022-10-09T11:09:14.022Z,101229.19
2022-10-09T11:14:29.730Z,101224.44
2022-10-09T11:19:47.039Z,101204.84
2022-10-09T11:25:02.293Z,101202.88
2022-10-09T11:30:09.409Z,101188.88
2022-10-09T11:35:17.113Z,101178.44
2022-10-09T11:40:24.523Z,101167.66
2022-10-09T11:45:30.677Z,101153.28
2022-10-09T11:50:40.618Z,101151.00
2022-10-09T11:55:44.744Z,101145.13
2022-10-09T12:00:50.559Z,101142.06
2022-10-09T12:05:53.525Z,101114.63
2022-10-09T12:10:59.438Z,101118.00
2022-10-09T12:16:02.281Z,101107.38
2022-10-09T12:21:06.710Z,101101.22
2022-10-09T12:26:11.995Z,101091.41
2022-10-09T12:31:18.772Z,101081.25
2022-10-09T12:36:25.219Z,101082.25
2022-10-09T12:41:31.599Z,101074.81
2022-10-09T12:46:36.057Z,101062.97
2022-10-09T12:51:38.935Z,101063.44
2022-10-09T12:56:43.315Z,101051.75
2022-10-09T13:01:46.710Z,101047.41
2022-10-09T13:06:51.046Z,101045.25
2022-10-09T13:11:57.750Z,101028.75
2022-10-09T13:17:00.426Z,101022.28
2022-10-09T13:22:21.554Z,101017.69
2022-10-09T13:27:27.837Z,101013.34
2022-10-09T13:32:30.948Z,101018.50
2022-10-09T13:37:33.644Z,101012.22
2022-10-09T13:42:38.252Z,101010.75
2022-10-09T13:47:40.892Z,101003.94
2022-10-09T13:52:43.837Z,100992.41
2022-10-09T13:57:48.739Z,100984.97
2022-10-09T14:02:51.684Z,100978.00
2022-10-09T14:07:55.241Z,100970.41
2022-10-09T14:12:59.623Z,100976.75
2022-10-09T14:18:02.258Z,100974.44
2022-10-09T14:23:04.918Z,100963.72
2022-10-09T14:28:09.143Z,100958.97
2022-10-09T14:33:12.607Z,100945.41
2022-10-09T14:38:15.391Z,100946.25
2022-10-09T14:43:20.018Z,100938.44
2022-10-09T14:48:22.630Z,100933.28
2022-10-09T14:53:26.808Z,100925.91
2022-10-09T14:58:33.142Z,100919.72
2022-10-09T15:03:36.763Z,100911.81
2022-10-09T15:08:41.631Z,100911.34
2022-10-09T15:13:46.144Z,100914.09
2022-10-09T15:18:50.281Z,100908.63
2022-10-09T15:23:54.393Z,100891.56
2022-10-09T15:28:58.610Z,100895.19
2022-10-09T15:34:02.130Z,100898.13
2022-10-09T15:39:07.186Z,100887.09
2022-10-09T15:44:15.424Z,100887.47
2022-10-09T15:49:18.525Z,100875.47
2022-10-09T15:54:21.241Z,100884.63
2022-10-09T15:59:25.762Z,100871.66
2022-10-09T16:04:28.556Z,100871.78
2022-10-09T16:09:33.377Z,100866.63
2022-10-09T16:14:38.323Z,100859.50
2022-10-09T16:19:41.018Z,100858.53
2022-10-09T16:24:43.702Z,100855.75
2022-10-09T16:29:48.282Z,100848.47
2022-10-09T16:34:51.015Z,100859.69
2022-10-09T16:39:53.717Z,100856.03
2022-10-09T16:44:58.378Z,100867.25
2022-10-09T16:50:01.303Z,100856.22
2022-10-09T16:55:04.093Z,100858.97
2022-10-09T17:00:09.691Z,100847.84
2022-10-09T17:05:12.341Z,100842.19
2022-10-09T17:10:14.969Z,100850.53
2022-10-09T17:15:19.088Z,100846.84
2022-10-09T17:20:22.535Z,100857.34
2022-10-09T17:25:25.158Z,100848.56
2022-10-09T17:30:29.110Z,100847.69
2022-10-09T17:35:31.766Z,100848.75
2022-10-09T17:40:38.680Z,100848.00
2022-10-09T17:45:43.656Z,100854.03
2022-10-09T17:50:53.258Z,100849.19
2022-10-09T17:55:57.457Z,100846.72
2022-10-09T18:01:05.655Z,100851.78
2022-10-09T18:06:10.150Z,100839.88
2022-10-09T18:11:15.144Z,100847.09
2022-10-09T18:16:22.451Z,100847.09
2022-10-09T18:21:25.231Z,100834.25
2022-10-09T18:26:27.853Z,100844.41
2022-10-09T18:31:32.058Z,100835.81
2022-10-09T18:36:34.945Z,100828.66
2022-10-09T18:41:38.096Z,100828.72
2022-10-09T18:46:44.806Z,100831.53
2022-10-09T18:51:47.971Z,100826.16
2022-10-09T18:56:50.787Z,100825.78
2022-10-09T19:01:54.746Z,100821.63
2022-10-09T19:06:57.387Z,100830.81
2022-10-09T19:12:00.091Z,100823.53
2022-10-09T19:17:04.303Z,100819.34
2022-10-09T19:22:09.730Z,100816.19
2022-10-09T19:27:15.754Z,100809.44
2022-10-09T19:32:23.582Z,100804.06
2022-10-09T19:37:29.683Z,100800.91
2022-10-09T19:42:32.730Z,100800.22
2022-10-09T19:47:37.147Z,100791.94
2022-10-09T19:52:39.835Z,100785.91
2022-10-09T19:57:42.650Z,100785.09
2022-10-09T20:02:46.824Z,100774.69
2022-10-09T20:07:49.775Z,100780.69
2022-10-09T20:12:52.953Z,100765.34
2022-10-09T20:17:57.047Z,100757.56
2022-10-09T20:22:59.940Z,100759.66
2022-10-09T20:28:02.571Z,100757.72
2022-10-09T20:33:06.606Z,100749.28
2022-10-09T20:38:09.335Z,100746.13
2022-10-09T20:43:13.382Z,100740.69
2022-10-09T20:48:17.554Z,100740.53
2022-10-09T20:53:20.257Z,100752.34
2022-10-09T20:58:22.845Z,100749.59
2022-10-09T21:03:26.919Z,100749.81
2022-10-09T21:08:29.710Z,100740.47
2022-10-09T21:13:32.353Z,100744.50
2022-10-09T21:18:37.096Z,100727.94
2022-10-09T21:23:40.395Z,100732.13
2022-10-09T21:28:43.648Z,100728.94
2022-10-09T21:33:48.161Z,100722.59
2022-10-09T21:38:50.796Z,100717.72
2022-10-09T21:43:53.405Z,100721.22
2022-10-09T21:48:57.758Z,100717.66
2022-10-09T21:54:00.587Z,100712.16
2022-10-09T21:59:03.407Z,100700.97
2022-10-09T22:04:07.412Z,100703.75
2022-10-09T22:09:10.156Z,100699.16
2022-10-09T22:14:13.172Z,100693.22
2022-10-09T22:19:20.938Z,100682.97
2022-10-09T22:24:28.375Z,100680.25
2022-10-09T22:29:31.802Z,100675.97
2022-10-09T22:34:35.789Z,100670.44
2022-10-09T22:39:38.486Z,100666.16
2022-10-09T22:44:41.138Z,100657.44
2022-10-09T22:49:45.182Z,100659.94
2022-10-09T22:54:47.816Z,100649.72
2022-10-09T22:59:50.402Z,100655.22
2022-10-09T23:04:54.521Z,100649.00
2022-10-09T23:09:57.379Z,100647.09
2022-10-09T23:15:00.227Z,100637.72
2022-10-09T23:20:04.583Z,100641.69
2022-10-09T23:25:08.294Z,100628.56
2022-10-09T23:30:11.965Z,100621.53
2022-10-09T23:35:16.086Z,100614.91
2022-10-09T23:40:19.184Z,100605.53
2022-10-09T23:45:21.860Z,100607.31
2022-10-09T23:50:26.044Z,100601.09
2022-10-09T23:55:28.694Z,100599.31
